Time;durP1;ratioP1;P1;durP2;ratioP2;P2;SDS_P1;SDS_P2;PMS_P1;PMS_P2;Temp;Humidity;BMP_temperature;BMP_pressure;BME280_temperature;BME280_humidity;BME280_pressure;Samples;Min_cycle;Max_cycle;Signal;HPM_P1;HPM_P2
2023/12/11 00:01:48;;;;;;;3.53;1.35;;;7.50;99.90;;;;;;4989064;28;20410;-62
2023/12/11 00:04:13;;;;;;;1.58;0.82;;;7.50;99.90;;;;;;4989015;28;20089;-62
2023/12/11 00:06:39;;;;;;;3.90;0.80;;;7.40;99.90;;;;;;4988892;28;20033;-62
2023/12/11 00:09:05;;;;;;;2.08;1.08;;;7.40;99.90;;;;;;4986848;28;20113;-62
2023/12/11 00:11:31;;;;;;;4.57;0.98;;;7.40;99.90;;;;;;4990969;28;20027;-62
2023/12/11 00:13:57;;;;;;;4.90;0.80;;;7.40;99.90;;;;;;4989429;28;20077;-63
2023/12/11 00:16:23;;;;;;;6.45;0.85;;;7.30;99.90;;;;;;4989206;28;20031;-63
2023/12/11 00:18:49;;;;;;;4.65;0.90;;;7.30;99.90;;;;;;4989731;28;20026;-63
2023/12/11 00:21:16;;;;;;;4.70;0.98;;;7.30;99.90;;;;;;4988739;28;20513;-62
2023/12/11 00:23:41;;;;;;;2.92;0.98;;;7.30;99.90;;;;;;4988117;28;20158;-63
2023/12/11 00:26:08;;;;;;;3.15;0.80;;;7.30;99.90;;;;;;4987557;28;20791;-62
2023/12/11 00:28:34;;;;;;;5.43;0.80;;;7.20;99.90;;;;;;4988208;28;20479;-63
2023/12/11 00:31:01;;;;;;;1.25;0.73;;;7.10;99.90;;;;;;4988191;28;20026;-62
2023/12/11 00:33:27;;;;;;;3.25;0.85;;;6.90;99.90;;;;;;4989679;28;20109;-63
2023/12/11 00:35:53;;;;;;;5.05;0.90;;;6.90;99.90;;;;;;4985977;28;20038;-62
2023/12/11 00:38:18;;;;;;;2.95;1.13;;;6.80;99.90;;;;;;4987693;28;20390;-63
2023/12/11 00:40:45;;;;;;;5.63;1.30;;;6.80;99.90;;;;;;4987970;28;20038;-62
2023/12/11 00:43:11;;;;;;;4.32;1.50;;;6.80;99.90;;;;;;4987492;28;20018;-63
2023/12/11 00:45:37;;;;;;;4.05;0.98;;;6.90;99.90;;;;;;4972589;28;20053;-62
2023/12/11 00:48:03;;;;;;;3.92;1.02;;;6.80;99.90;;;;;;4989034;28;20382;-62
2023/12/11 00:50:28;;;;;;;4.90;1.10;;;6.80;99.90;;;;;;4988077;28;20102;-64
2023/12/11 00:52:54;;;;;;;4.13;0.90;;;6.80;99.90;;;;;;4987022;28;20105;-62
2023/12/11 00:55:19;;;;;;;10.70;1.52;;;6.80;99.90;;;;;;4988804;28;20047;-62
2023/12/11 00:57:45;;;;;;;3.83;1.00;;;6.80;99.90;;;;;;4988067;28;20026;-62
2023/12/11 01:00:11;;;;;;;2.22;0.80;;;6.80;99.90;;;;;;4988469;28;20045;-62
2023/12/11 01:02:38;;;;;;;2.85;0.80;;;6.80;99.90;;;;;;4985677;28;20118;-63
2023/12/11 01:05:04;;;;;;;2.55;1.05;;;6.80;99.90;;;;;;4988622;28;20077;-63
2023/12/11 01:07:30;;;;;;;2.40;0.85;;;6.80;99.90;;;;;;4987362;28;20022;-62
2023/12/11 01:09:55;;;;;;;1.70;0.85;;;6.90;99.90;;;;;;4988332;28;20014;-62
2023/12/11 01:12:21;;;;;;;4.07;0.85;;;6.90;99.90;;;;;;4987517;28;20019;-63
2023/12/11 01:14:47;;;;;;;6.25;1.50;;;6.90;99.90;;;;;;4987510;28;20034;-63
2023/12/11 01:17:12;;;;;;;4.70;1.10;;;6.90;99.90;;;;;;4987693;28;20034;-63
2023/12/11 01:19:39;;;;;;;4.47;0.90;;;7.00;99.90;;;;;;4991858;28;20073;-62
2023/12/11 01:22:04;;;;;;;5.10;0.90;;;7.00;99.90;;;;;;4988641;28;20053;-62
2023/12/11 01:24:30;;;;;;;3.20;0.95;;;7.00;99.90;;;;;;4988093;28;20462;-62
2023/12/11 01:26:56;;;;;;;3.35;0.88;;;7.00;99.90;;;;;;4987059;28;20475;-63
2023/12/11 01:29:21;;;;;;;4.60;0.70;;;7.00;99.90;;;;;;4987527;28;20093;-62
2023/12/11 01:31:47;;;;;;;2.63;0.73;;;7.00;99.90;;;;;;4986822;28;20030;-63
2023/12/11 01:34:13;;;;;;;2.22;1.50;;;7.00;99.90;;;;;;4988607;28;20040;-63
2023/12/11 01:36:39;;;;;;;2.67;0.60;;;7.00;99.90;;;;;;4987103;28;20019;-63
2023/12/11 01:39:04;;;;;;;2.78;0.90;;;7.00;99.90;;;;;;4987868;28;20072;-63
2023/12/11 01:41:30;;;;;;;8.60;1.52;;;7.00;99.90;;;;;;4986630;28;20061;-61
2023/12/11 01:43:56;;;;;;;6.40;2.45;;;7.00;99.90;;;;;;4987920;28;20394;-63
2023/12/11 01:46:24;;;;;;;1.80;1.27;;;7.00;99.90;;;;;;4986319;28;20026;-62
2023/12/11 01:48:51;;;;;;;3.08;0.88;;;7.00;99.90;;;;;;4985859;28;20019;-63
2023/12/11 01:51:18;;;;;;;5.20;1.05;;;7.00;99.90;;;;;;4988192;28;20100;-63
2023/12/11 01:53:48;;;;;;;4.25;2.03;;;7.10;99.90;;;;;;4987097;28;20030;-63
2023/12/11 01:56:17;;;;;;;4.18;1.17;;;7.10;99.90;;;;;;4986831;28;20042;-62
2023/12/11 01:58:43;;;;;;;3.45;0.90;;;7.10;99.90;;;;;;4987877;28;20460;-62
2023/12/11 02:01:12;;;;;;;2.08;0.80;;;7.10;99.90;;;;;;4985392;28;20026;-63
2023/12/11 02:03:38;;;;;;;2.63;0.75;;;7.10;99.90;;;;;;4987020;28;20034;-63
2023/12/11 02:06:04;;;;;;;3.67;0.70;;;7.10;99.90;;;;;;4987420;28;20026;-62
2023/12/11 02:08:30;;;;;;;4.45;0.80;;;7.10;99.90;;;;;;4987143;28;20113;-63
2023/12/11 02:10:56;;;;;;;5.18;0.98;;;7.20;99.90;;;;;;4987270;28;20026;-63
2023/12/11 02:13:22;;;;;;;2.67;0.63;;;7.20;99.90;;;;;;4986824;28;20045;-63
2023/12/11 02:15:47;;;;;;;2.05;0.60;;;7.30;99.90;;;;;;4988039;28;20026;-63
2023/12/11 02:18:16;;;;;;;7.68;1.40;;;7.30;99.90;;;;;;4987067;28;20038;-63
2023/12/11 02:20:43;;;;;;;4.93;1.00;;;7.30;99.90;;;;;;4987615;28;20037;-62
2023/12/11 02:23:15;;;;;;;5.38;1.00;;;7.30;99.90;;;;;;4987182;28;20023;-63
2023/12/11 02:25:43;;;;;;;2.22;0.80;;;7.30;99.90;;;;;;4986173;28;20030;-63
2023/12/11 02:28:09;;;;;;;1.85;0.70;;;7.30;99.90;;;;;;4987054;28;20019;-62
2023/12/11 02:30:38;;;;;;;2.38;0.63;;;7.30;99.90;;;;;;4987864;28;20081;-63
2023/12/11 02:33:04;;;;;;;2.53;0.80;;;7.40;99.90;;;;;;4986936;28;20022;-62
2023/12/11 02:35:31;;;;;;;4.88;1.20;;;7.60;99.90;;;;;;4985368;28;20027;-63
2023/12/11 02:37:56;;;;;;;3.75;1.65;;;7.70;99.90;;;;;;4987923;28;20509;-63
2023/12/11 02:40:22;;;;;;;3.13;0.80;;;7.80;99.90;;;;;;4986770;28;20031;-63
2023/12/11 02:42:48;;;;;;;1.52;1.15;;;7.90;99.90;;;;;;4988342;28;20026;-62
2023/12/11 02:45:16;;;;;;;1.63;0.60;;;8.00;99.90;;;;;;4986629;28;20069;-63
2023/12/11 02:47:42;;;;;;;1.42;0.60;;;8.00;99.90;;;;;;4986867;28;20031;-62
2023/12/11 02:50:08;;;;;;;4.68;0.70;;;8.10;99.90;;;;;;4985719;28;20040;-62
2023/12/11 02:52:34;;;;;;;7.85;1.02;;;8.10;99.90;;;;;;4987269;28;20230;-62
2023/12/11 02:55:00;;;;;;;1.23;0.68;;;8.10;99.90;;;;;;4985505;28;20034;-62
2023/12/11 02:57:25;;;;;;;3.33;1.08;;;8.10;99.90;;;;;;4987665;28;20030;-63
2023/12/11 02:59:51;;;;;;;1.30;0.55;;;8.10;99.90;;;;;;4986674;28;20034;-61
2023/12/11 03:02:16;;;;;;;2.42;1.02;;;8.00;99.90;;;;;;4987776;28;20395;-63
2023/12/11 03:04:42;;;;;;;2.25;0.40;;;8.00;99.90;;;;;;4985838;28;20057;-62
2023/12/11 03:07:08;;;;;;;1.98;0.50;;;8.00;99.90;;;;;;4986090;28;20125;-62
2023/12/11 03:09:33;;;;;;;3.47;0.70;;;8.10;99.90;;;;;;4986160;28;20296;-62
2023/12/11 03:11:59;;;;;;;1.83;0.52;;;8.10;99.90;;;;;;4986772;28;20120;-62
2023/12/11 03:14:25;;;;;;;1.30;0.55;;;8.10;99.90;;;;;;4984770;28;20019;-60
2023/12/11 03:16:50;;;;;;;1.20;0.52;;;8.10;99.90;;;;;;4986679;28;20031;-63
2023/12/11 03:19:16;;;;;;;2.97;0.60;;;8.10;99.90;;;;;;4986973;28;20042;-62
2023/12/11 03:21:42;;;;;;;2.35;0.68;;;8.20;99.90;;;;;;4986887;28;20030;-62
2023/12/11 03:24:08;;;;;;;1.60;0.50;;;8.20;99.90;;;;;;4988720;28;20030;-62
2023/12/11 03:26:34;;;;;;;2.25;0.60;;;8.30;99.90;;;;;;4989465;28;20090;-63
2023/12/11 03:29:00;;;;;;;3.08;1.02;;;8.30;99.90;;;;;;4990872;28;20053;-62
2023/12/11 03:31:25;;;;;;;0.85;0.50;;;8.30;99.90;;;;;;4990807;28;20034;-61
2023/12/11 03:33:51;;;;;;;1.35;0.60;;;8.30;99.90;;;;;;4991042;28;20025;-62
2023/12/11 03:36:17;;;;;;;0.85;0.73;;;8.30;99.90;;;;;;4989732;28;20126;-62
2023/12/11 03:38:43;;;;;;;1.52;0.98;;;8.30;99.90;;;;;;4990645;28;20030;-62
2023/12/11 03:41:09;;;;;;;1.88;0.60;;;8.30;99.90;;;;;;4990668;28;20054;-62
2023/12/11 03:43:34;;;;;;;1.17;0.52;;;8.30;99.90;;;;;;4989801;28;20030;-62
2023/12/11 03:46:03;;;;;;;1.33;0.50;;;8.30;99.90;;;;;;4989635;28;20030;-62
2023/12/11 03:48:28;;;;;;;2.70;0.75;;;8.40;99.90;;;;;;4991244;28;20018;-62
2023/12/11 03:50:54;;;;;;;1.02;0.68;;;8.40;99.90;;;;;;4990281;28;20101;-62
2023/12/11 03:53:20;;;;;;;0.80;0.52;;;8.40;99.90;;;;;;4991473;28;20034;-62
2023/12/11 03:55:45;;;;;;;1.92;0.85;;;8.40;99.90;;;;;;4991642;28;20041;-63
2023/12/11 03:58:11;;;;;;;2.22;0.70;;;8.50;99.90;;;;;;4990331;28;20026;-62
2023/12/11 04:00:37;;;;;;;1.85;0.57;;;8.50;99.90;;;;;;4991192;28;20078;-63
2023/12/11 04:03:02;;;;;;;1.85;0.60;;;8.50;99.90;;;;;;4989481;28;20026;-62
2023/12/11 04:05:28;;;;;;;4.40;0.90;;;8.60;99.90;;;;;;4990000;28;20030;-62
2023/12/11 04:07:54;;;;;;;0.90;0.70;;;8.60;99.90;;;;;;4990443;28;20560;-63
2023/12/11 04:10:19;;;;;;;1.58;0.70;;;8.60;99.90;;;;;;4991170;28;20422;-61
2023/12/11 04:12:45;;;;;;;1.65;0.70;;;8.60;99.90;;;;;;4990960;28;20038;-62
2023/12/11 04:15:11;;;;;;;1.35;0.57;;;8.60;99.90;;;;;;4990333;28;20450;-62
2023/12/11 04:17:37;;;;;;;2.42;0.88;;;8.60;99.90;;;;;;4990488;28;20521;-62
2023/12/11 04:20:04;;;;;;;3.72;0.82;;;8.70;99.90;;;;;;4991423;28;20038;-62
2023/12/11 04:22:30;;;;;;;1.75;0.70;;;8.60;99.90;;;;;;4989698;28;20080;-62
2023/12/11 04:24:55;;;;;;;1.48;0.65;;;8.60;99.90;;;;;;4987936;28;20022;-62
2023/12/11 04:27:21;;;;;;;2.53;0.70;;;8.60;99.90;;;;;;4989453;28;20378;-62
2023/12/11 04:29:47;;;;;;;3.80;0.65;;;8.50;99.90;;;;;;4989691;28;20113;-62
2023/12/11 04:32:12;;;;;;;1.50;0.88;;;8.40;99.90;;;;;;4989142;28;20034;-63
2023/12/11 04:34:38;;;;;;;6.18;2.00;;;8.40;99.90;;;;;;4988318;28;20038;-62
2023/12/11 04:37:04;;;;;;;5.65;1.08;;;8.50;99.90;;;;;;4988911;28;20030;-62
2023/12/11 04:39:29;;;;;;;1.05;0.70;;;8.50;99.90;;;;;;4989442;28;20375;-62
2023/12/11 04:41:55;;;;;;;5.13;1.10;;;8.50;99.90;;;;;;4989960;28;20045;-62
2023/12/11 04:44:21;;;;;;;3.47;0.50;;;8.50;99.90;;;;;;4989021;28;20033;-63
2023/12/11 04:46:46;;;;;;;1.70;0.57;;;8.50;99.90;;;;;;4990035;28;20019;-62
2023/12/11 04:49:12;;;;;;;3.25;0.93;;;8.50;99.90;;;;;;4987915;28;20546;-63
2023/12/11 04:51:37;;;;;;;1.50;0.50;;;8.40;99.90;;;;;;4990200;28;20044;-63
2023/12/11 04:54:03;;;;;;;1.63;0.73;;;8.50;99.90;;;;;;4988320;28;20034;-62
2023/12/11 04:56:29;;;;;;;1.00;0.50;;;8.40;99.90;;;;;;4988921;28;20069;-62
2023/12/11 04:58:55;;;;;;;2.33;0.85;;;8.30;99.90;;;;;;4989397;28;20034;-62
2023/12/11 05:01:21;;;;;;;0.60;0.60;;;8.30;99.90;;;;;;4989493;28;20045;-63
2023/12/11 05:03:47;;;;;;;1.55;0.90;;;8.20;99.90;;;;;;4990089;28;20543;-64
2023/12/11 05:06:13;;;;;;;5.75;0.90;;;8.20;99.90;;;;;;4988818;28;20224;-63
2023/12/11 05:08:38;;;;;;;3.92;0.90;;;8.10;99.90;;;;;;4990993;28;20031;-62
2023/12/11 05:11:04;;;;;;;1.48;0.63;;;8.10;99.90;;;;;;4989853;28;20031;-62
2023/12/11 05:13:30;;;;;;;2.47;0.80;;;8.10;99.90;;;;;;4989715;28;20031;-61
2023/12/11 05:15:55;;;;;;;1.17;0.73;;;8.10;99.90;;;;;;4989031;28;20019;-62
2023/12/11 05:18:21;;;;;;;3.83;0.80;;;8.10;99.90;;;;;;4995760;28;20545;-62
2023/12/11 05:20:47;;;;;;;0.88;0.70;;;8.20;99.90;;;;;;4988553;28;20109;-61
2023/12/11 05:23:12;;;;;;;3.08;0.70;;;8.20;99.90;;;;;;4989041;28;20498;-63
2023/12/11 05:25:38;;;;;;;2.05;0.98;;;8.30;99.90;;;;;;4975265;28;20376;-63
2023/12/11 05:28:04;;;;;;;3.25;0.80;;;8.30;99.90;;;;;;4987578;28;20426;-62
2023/12/11 05:30:31;;;;;;;2.10;0.80;;;8.40;99.90;;;;;;4988768;28;20129;-62
2023/12/11 05:32:56;;;;;;;2.97;1.23;;;8.40;99.90;;;;;;4988625;28;20042;-62
2023/12/11 05:35:22;;;;;;;3.75;0.70;;;8.50;99.90;;;;;;4986886;28;20060;-62
2023/12/11 05:37:48;;;;;;;1.30;0.90;;;8.50;99.90;;;;;;4987634;28;20482;-62
2023/12/11 05:40:13;;;;;;;2.35;0.60;;;8.50;99.90;;;;;;4988640;28;20041;-62
2023/12/11 05:42:39;;;;;;;4.03;0.90;;;8.60;99.90;;;;;;4988891;28;20022;-62
2023/12/11 05:45:05;;;;;;;2.35;1.10;;;8.70;99.90;;;;;;4988275;28;20060;-62
2023/12/11 05:47:31;;;;;;;3.63;0.80;;;8.70;99.90;;;;;;4987268;28;20034;-62
2023/12/11 05:49:56;;;;;;;2.38;0.68;;;8.70;99.90;;;;;;4988134;28;20069;-63
2023/12/11 05:52:22;;;;;;;3.45;0.82;;;8.70;99.90;;;;;;4987924;28;20034;-63
2023/12/11 05:54:48;;;;;;;2.85;0.90;;;8.70;99.90;;;;;;4988293;28;20045;-63
2023/12/11 05:57:13;;;;;;;5.28;0.80;;;8.70;99.90;;;;;;4987700;28;20136;-63
2023/12/11 05:59:39;;;;;;;1.10;0.77;;;8.70;99.90;;;;;;4988135;28;20854;-62
2023/12/11 06:02:04;;;;;;;2.17;0.70;;;8.70;99.90;;;;;;4986546;28;20038;-62
2023/12/11 06:04:30;;;;;;;1.73;0.80;;;8.70;99.90;;;;;;4988099;28;20030;-62
2023/12/11 06:06:56;;;;;;;0.88;0.50;;;8.70;99.90;;;;;;4987077;28;20026;-63
2023/12/11 06:09:21;;;;;;;2.28;0.75;;;8.70;99.90;;;;;;4988913;28;20022;-63
2023/12/11 06:11:47;;;;;;;4.70;0.90;;;8.60;99.90;;;;;;4987793;28;20029;-62
2023/12/11 06:14:13;;;;;;;5.90;0.85;;;8.50;99.90;;;;;;4987192;28;20028;-62
2023/12/11 06:16:38;;;;;;;6.40;1.50;;;8.50;99.90;;;;;;4987773;28;20129;-62
2023/12/11 06:19:04;;;;;;;2.55;0.80;;;8.50;99.90;;;;;;4987702;28;20042;-63
2023/12/11 06:21:30;;;;;;;5.95;0.75;;;8.50;99.90;;;;;;4987883;28;20497;-62
2023/12/11 06:23:56;;;;;;;2.85;1.58;;;8.50;99.90;;;;;;4985132;28;20025;-62
2023/12/11 06:26:34;;;;;;;5.55;0.77;;;8.50;99.90;;;;;;4987372;28;20026;-62
2023/12/11 06:29:00;;;;;;;3.67;0.85;;;8.50;99.90;;;;;;4987136;28;20667;-61
2023/12/11 06:31:27;;;;;;;4.18;1.13;;;8.50;99.90;;;;;;4986495;28;20169;-62
2023/12/11 06:33:54;;;;;;;6.32;0.75;;;8.60;99.90;;;;;;4987149;28;20062;-63
2023/12/11 06:36:21;;;;;;;6.03;1.00;;;8.50;99.90;;;;;;4986780;28;20394;-64
2023/12/11 06:38:50;;;;;;;1.73;0.73;;;8.40;99.90;;;;;;4986584;28;20097;-63
2023/12/11 06:41:17;;;;;;;4.38;0.93;;;8.30;99.90;;;;;;4987452;28;20061;-64
2023/12/11 06:43:43;;;;;;;3.45;0.90;;;8.30;99.90;;;;;;4986346;28;20029;-64
2023/12/11 06:46:11;;;;;;;2.55;0.80;;;8.20;99.90;;;;;;4987748;28;20018;-64
2023/12/11 06:48:36;;;;;;;2.55;0.85;;;8.10;99.90;;;;;;4987013;28;20027;-63
2023/12/11 06:51:02;;;;;;;1.75;0.88;;;8.00;99.90;;;;;;4987236;28;20037;-63
2023/12/11 06:53:28;;;;;;;1.38;0.70;;;8.00;99.90;;;;;;4986567;28;20026;-64
2023/12/11 06:55:53;;;;;;;1.45;0.70;;;7.90;99.90;;;;;;4984437;28;20483;-63
2023/12/11 06:58:19;;;;;;;5.20;1.63;;;7.80;99.90;;;;;;4986675;28;20434;-64
2023/12/11 07:00:45;;;;;;;1.92;0.98;;;7.70;99.90;;;;;;4987238;28;20018;-63
2023/12/11 07:03:10;;;;;;;5.57;1.02;;;7.50;99.90;;;;;;4986666;28;20109;-62
2023/12/11 07:05:36;;;;;;;3.47;1.10;;;7.40;99.90;;;;;;4986403;28;20062;-63
2023/12/11 07:08:02;;;;;;;1.80;0.90;;;7.40;99.90;;;;;;4986053;28;20023;-63
2023/12/11 07:10:27;;;;;;;2.85;1.30;;;7.50;99.90;;;;;;4985867;28;20632;-62
2023/12/11 07:12:55;;;;;;;2.85;1.00;;;7.40;99.90;;;;;;4988045;28;20045;-63
2023/12/11 07:15:21;;;;;;;3.47;1.63;;;7.40;99.90;;;;;;4986061;28;20500;-64
2023/12/11 07:17:46;;;;;;;3.78;1.10;;;7.40;99.90;;;;;;4987306;28;20060;-63
2023/12/11 07:20:12;;;;;;;1.63;1.00;;;7.40;99.90;;;;;;4986114;28;20034;-63
2023/12/11 07:22:38;;;;;;;4.00;1.20;;;7.30;99.90;;;;;;4985996;28;20038;-63
2023/12/11 07:25:04;;;;;;;3.50;1.40;;;7.30;99.90;;;;;;4986692;28;20034;-64
2023/12/11 07:27:30;;;;;;;2.55;1.20;;;7.30;99.90;;;;;;4986680;28;20014;-63
2023/12/11 07:29:56;;;;;;;3.97;1.20;;;7.30;99.90;;;;;;4986762;28;20041;-63
2023/12/11 07:32:21;;;;;;;5.45;1.00;;;7.30;99.90;;;;;;4986987;28;20394;-63
2023/12/11 07:34:47;;;;;;;4.10;1.27;;;7.30;99.90;;;;;;4986744;28;20030;-63
2023/12/11 07:37:12;;;;;;;3.65;1.35;;;7.20;99.90;;;;;;4987894;28;20042;-63
2023/12/11 07:39:38;;;;;;;3.58;1.00;;;7.20;99.90;;;;;;4987536;28;20027;-63
2023/12/11 07:42:04;;;;;;;5.85;2.15;;;7.20;99.90;;;;;;4986246;28;20041;-63
2023/12/11 07:44:30;;;;;;;3.17;1.30;;;7.20;99.90;;;;;;4985715;28;20022;-63
2023/12/11 07:46:56;;;;;;;9.15;2.15;;;7.30;99.90;;;;;;4986185;28;20089;-63
2023/12/11 07:49:22;;;;;;;2.03;1.00;;;7.30;99.90;;;;;;4985822;28;20027;-63
2023/12/11 07:51:47;;;;;;;2.50;0.82;;;7.30;99.90;;;;;;4987044;28;20430;-63
2023/12/11 07:54:13;;;;;;;5.13;1.00;;;7.30;99.90;;;;;;4985988;28;20039;-63
2023/12/11 07:56:40;;;;;;;2.00;0.98;;;7.40;99.90;;;;;;4986210;28;20662;-63
2023/12/11 07:59:06;;;;;;;4.07;1.20;;;7.30;99.90;;;;;;4986639;28;20041;-63
2023/12/11 08:01:32;;;;;;;2.08;1.00;;;7.40;99.90;;;;;;4986699;28;20038;-62
2023/12/11 08:03:59;;;;;;;6.82;1.00;;;7.40;99.90;;;;;;4985738;28;20022;-63
2023/12/11 08:06:25;;;;;;;5.85;1.30;;;7.40;99.90;;;;;;4986523;28;20026;-63
2023/12/11 08:08:51;;;;;;;11.15;1.13;;;7.40;99.90;;;;;;4985502;28;20475;-64
2023/12/11 08:11:28;;;;;;;7.28;1.35;;;7.50;99.90;;;;;;4988432;28;20084;-63
2023/12/11 08:13:54;;;;;;;1.77;1.13;;;7.60;99.90;;;;;;4988591;28;20025;-64
2023/12/11 08:16:20;;;;;;;3.95;0.90;;;7.80;99.90;;;;;;4987623;28;20039;-64
2023/12/11 08:18:48;;;;;;;2.28;0.98;;;7.80;99.90;;;;;;4989595;28;20077;-63
2023/12/11 08:21:14;;;;;;;2.75;1.27;;;7.90;99.90;;;;;;4990820;28;20853;-65
2023/12/11 08:23:40;;;;;;;1.17;0.75;;;7.90;99.90;;;;;;4990078;28;20650;-65
2023/12/11 08:26:07;;;;;;;2.15;1.00;;;7.90;99.90;;;;;;4989800;28;20030;-63
2023/12/11 08:28:33;;;;;;;2.20;0.80;;;8.00;99.90;;;;;;4989443;28;20034;-63
2023/12/11 08:30:59;;;;;;;3.20;1.00;;;8.10;99.90;;;;;;4988904;28;20025;-63
2023/12/11 08:33:25;;;;;;;1.95;0.85;;;8.30;99.90;;;;;;4990323;28;20034;-62
2023/12/11 08:35:50;;;;;;;2.13;1.08;;;8.40;99.90;;;;;;4987678;28;20447;-63
2023/12/11 08:38:16;;;;;;;2.83;0.95;;;8.40;99.90;;;;;;4989759;28;20674;-63
2023/12/11 08:40:43;;;;;;;1.52;1.02;;;8.50;99.90;;;;;;4988449;28;20070;-63
2023/12/11 08:43:12;;;;;;;1.63;0.80;;;8.60;99.90;;;;;;4988409;28;20022;-62
2023/12/11 08:45:37;;;;;;;3.38;1.00;;;8.80;99.90;;;;;;4988336;28;20025;-62
2023/12/11 08:48:03;;;;;;;1.08;0.82;;;8.90;99.90;;;;;;4988455;28;20039;-63
2023/12/11 08:50:29;;;;;;;2.35;0.98;;;9.00;99.90;;;;;;4986256;28;20030;-63
2023/12/11 08:52:54;;;;;;;1.13;0.88;;;9.10;99.90;;;;;;4987966;28;20423;-63
2023/12/11 08:55:20;;;;;;;1.27;0.70;;;9.10;99.90;;;;;;4986953;28;20046;-62
2023/12/11 08:57:45;;;;;;;1.05;0.60;;;9.20;99.90;;;;;;4986737;28;20019;-63
2023/12/11 09:00:12;;;;;;;6.47;1.15;;;9.20;99.90;;;;;;4987601;28;20073;-63
2023/12/11 09:02:38;;;;;;;1.73;0.80;;;9.20;99.90;;;;;;4986964;28;20039;-63
2023/12/11 09:05:03;;;;;;;3.28;0.80;;;9.30;99.90;;;;;;4987317;28;20034;-62
2023/12/11 09:07:29;;;;;;;0.85;0.70;;;9.40;99.90;;;;;;4987848;28;20046;-62
2023/12/11 09:09:55;;;;;;;0.88;0.65;;;9.50;99.90;;;;;;4988496;28;20753;-63
2023/12/11 09:12:22;;;;;;;0.98;0.65;;;9.50;99.90;;;;;;4988137;28;20097;-63
2023/12/11 09:14:47;;;;;;;2.10;0.68;;;9.60;99.90;;;;;;4986533;28;20070;-63
2023/12/11 09:17:13;;;;;;;2.80;0.93;;;9.70;99.90;;;;;;4988118;28;20553;-63
2023/12/11 09:19:39;;;;;;;1.85;0.70;;;9.80;99.90;;;;;;4987218;28;20022;-63
2023/12/11 09:22:04;;;;;;;0.70;0.70;;;10.00;99.90;;;;;;4986805;28;20410;-64
2023/12/11 09:24:30;;;;;;;1.98;1.05;;;10.20;99.90;;;;;;4986497;28;20015;-63
2023/12/11 09:26:56;;;;;;;1.60;0.70;;;10.60;99.90;;;;;;4986678;28;20034;-64
2023/12/11 09:29:21;;;;;;;1.80;0.70;;;10.80;99.90;;;;;;4987384;28;20041;-64
2023/12/11 09:31:47;;;;;;;1.73;0.50;;;10.80;99.90;;;;;;4990437;28;20042;-63
2023/12/11 09:34:12;;;;;;;1.73;0.68;;;10.70;99.90;;;;;;4987773;28;20487;-62
2023/12/11 09:36:38;;;;;;;0.80;0.50;;;10.50;99.90;;;;;;4987098;28;20586;-63
2023/12/11 09:39:07;;;;;;;1.67;0.50;;;10.50;99.90;;;;;;4987166;28;20042;-63
2023/12/11 09:41:34;;;;;;;3.30;0.40;;;10.70;99.90;;;;;;4984163;28;20033;-62
2023/12/11 09:44:01;;;;;;;2.28;1.63;;;11.10;99.90;;;;;;4989896;28;20026;-63
2023/12/11 09:46:44;;;;;;;2.75;0.65;;;11.20;99.90;;;;;;4987380;28;20085;-63
2023/12/11 09:49:11;;;;;;;3.67;0.80;;;11.00;99.90;;;;;;4987796;28;20033;-62
2023/12/11 09:51:36;;;;;;;5.22;1.00;;;10.80;99.90;;;;;;4988634;28;20099;-63
2023/12/11 09:54:03;;;;;;;1.65;0.93;;;10.60;99.90;;;;;;4991476;28;20117;-63
2023/12/11 09:56:30;;;;;;;5.97;0.85;;;10.50;99.90;;;;;;4988588;28;20046;-63
2023/12/11 09:58:57;;;;;;;3.17;1.55;;;10.40;99.90;;;;;;4990526;28;20406;-63
2023/12/11 10:01:23;;;;;;;2.08;0.70;;;10.40;99.90;;;;;;4988323;28;20128;-62
2023/12/11 10:03:49;;;;;;;3.42;0.60;;;10.30;99.90;;;;;;4988018;28;20498;-63
2023/12/11 10:06:15;;;;;;;0.85;0.63;;;10.30;99.90;;;;;;4990366;28;20092;-63
2023/12/11 10:08:45;;;;;;;2.40;0.70;;;10.30;99.90;;;;;;4993455;28;20037;-62
2023/12/11 10:11:13;;;;;;;2.15;0.63;;;10.40;99.90;;;;;;4983856;28;20746;-63
2023/12/11 10:13:39;;;;;;;2.28;1.40;;;10.40;99.90;;;;;;4988325;28;20046;-63
2023/12/11 10:16:06;;;;;;;2.63;0.50;;;10.40;99.90;;;;;;4990508;28;20026;-63
2023/12/11 10:18:31;;;;;;;2.90;0.80;;;10.50;99.90;;;;;;4990819;28;20556;-62
2023/12/11 10:20:58;;;;;;;1.40;0.40;;;10.50;99.90;;;;;;4988021;28;20030;-63
2023/12/11 10:23:25;;;;;;;4.10;1.13;;;10.60;99.90;;;;;;4988919;28;20026;-63
2023/12/11 10:25:53;;;;;;;2.30;0.68;;;10.60;99.90;;;;;;4988807;28;20031;-63
2023/12/11 10:28:21;;;;;;;4.63;0.60;;;10.60;99.90;;;;;;4987376;28;20113;-63
2023/12/11 10:30:50;;;;;;;2.08;0.77;;;10.60;99.90;;;;;;4987419;28;20033;-63
2023/12/11 10:33:18;;;;;;;1.52;0.60;;;10.60;99.90;;;;;;4986058;28;20029;-63
2023/12/11 10:35:45;;;;;;;3.75;0.80;;;10.60;99.90;;;;;;4985977;28;20495;-63
2023/12/11 10:38:12;;;;;;;1.38;1.02;;;10.60;99.90;;;;;;4987244;28;20030;-63
2023/12/11 10:40:41;;;;;;;2.10;0.70;;;10.50;99.90;;;;;;4986564;28;20046;-62
2023/12/11 10:43:07;;;;;;;2.33;0.50;;;10.50;99.90;;;;;;4985963;28;20029;-63
2023/12/11 10:45:33;;;;;;;1.33;0.60;;;10.50;99.90;;;;;;4986995;28;20027;-63
2023/12/11 10:48:00;;;;;;;2.28;0.52;;;10.60;99.90;;;;;;4985656;28;20022;-63
2023/12/11 10:50:26;;;;;;;3.65;0.65;;;10.60;99.90;;;;;;4987276;28;20026;-63
2023/12/11 10:52:53;;;;;;;0.60;0.50;;;10.50;99.90;;;;;;4987643;28;20034;-62
2023/12/11 10:55:19;;;;;;;4.57;0.70;;;10.60;99.90;;;;;;4986736;28;20042;-63
2023/12/11 10:57:45;;;;;;;2.35;0.63;;;10.50;99.90;;;;;;4987902;28;20054;-63
2023/12/11 11:00:14;;;;;;;2.65;0.60;;;10.50;99.90;;;;;;4986802;28;20030;-63
2023/12/11 11:02:48;;;;;;;2.42;0.93;;;10.50;99.90;;;;;;4986983;28;20826;-63
2023/12/11 11:05:15;;;;;;;2.45;0.85;;;10.50;99.90;;;;;;4986672;28;20038;-63
2023/12/11 11:07:49;;;;;;;0.98;0.60;;;10.60;99.90;;;;;;4987097;28;20395;-62
2023/12/11 11:10:21;;;;;;;0.90;0.70;;;10.70;99.90;;;;;;4986497;28;20041;-63
2023/12/11 11:12:54;;;;;;;1.50;0.65;;;10.70;99.90;;;;;;4987756;28;20114;-63
2023/12/11 11:15:24;;;;;;;1.67;0.55;;;10.70;99.90;;;;;;4987186;28;20030;-63
2023/12/11 11:18:13;;;;;;;2.47;0.80;;;10.70;99.90;;;;;;4986643;28;20030;-63
2023/12/11 11:20:40;;;;;;;4.60;0.70;;;10.70;99.90;;;;;;4986539;28;20058;-63
2023/12/11 11:23:15;;;;;;;2.60;0.82;;;10.70;99.90;;;;;;4987704;28;20138;-64
2023/12/11 11:25:51;;;;;;;2.88;0.82;;;10.70;99.90;;;;;;4986123;28;20065;-63
2023/12/11 11:28:40;;;;;;;3.25;1.42;;;10.70;99.90;;;;;;4986705;28;20553;-63
2023/12/11 11:31:10;;;;;;;5.82;1.48;;;10.90;99.90;;;;;;4987439;28;20022;-63
2023/12/11 11:33:52;;;;;;;3.17;0.60;;;11.00;99.90;;;;;;4986525;28;20034;-62
2023/12/11 11:36:20;;;;;;;2.10;0.82;;;11.20;99.90;;;;;;4985362;28;20968;-63
2023/12/11 11:38:57;;;;;;;5.38;0.93;;;11.30;99.90;;;;;;4987083;28;20165;-62
2023/12/11 11:41:24;;;;;;;1.05;0.60;;;11.30;99.90;;;;;;4985675;28;20053;-63
2023/12/11 11:44:00;;;;;;;3.75;1.13;;;11.30;99.90;;;;;;4986658;28;20145;-63
2023/12/11 11:46:46;;;;;;;4.07;0.77;;;11.20;99.90;;;;;;4988671;28;20030;-63
2023/12/11 11:49:24;;;;;;;4.72;0.90;;;11.20;99.90;;;;;;4990383;28;20503;-63
2023/12/11 11:51:50;;;;;;;1.45;0.60;;;11.10;99.90;;;;;;4990271;28;20077;-63
2023/12/11 11:54:16;;;;;;;3.88;0.90;;;11.10;99.90;;;;;;4990483;28;20562;-63
2023/12/11 11:56:52;;;;;;;2.17;0.73;;;11.00;99.90;;;;;;4989951;28;20050;-63
2023/12/11 11:59:19;;;;;;;10.23;1.10;;;11.00;99.90;;;;;;4989795;28;20057;-64
2023/12/11 12:01:49;;;;;;;2.38;0.88;;;10.90;99.90;;;;;;4990101;28;20248;-62
2023/12/11 12:04:28;;;;;;;6.00;1.73;;;10.90;99.90;;;;;;4990261;28;20129;-63
2023/12/11 12:06:57;;;;;;;3.22;1.08;;;11.00;99.90;;;;;;4990349;28;20041;-63
2023/12/11 12:09:24;;;;;;;5.03;0.80;;;11.00;99.90;;;;;;4991391;28;20033;-63
2023/12/11 12:11:50;;;;;;;7.40;0.80;;;11.00;99.90;;;;;;4990428;28;20525;-63
2023/12/11 12:14:15;;;;;;;1.45;0.80;;;11.10;99.90;;;;;;4990302;28;20031;-63
2023/12/11 12:16:41;;;;;;;8.70;1.17;;;11.20;99.90;;;;;;4989569;28;20030;-64
2023/12/11 12:19:07;;;;;;;2.13;0.90;;;11.40;99.90;;;;;;4989520;28;20030;-63
2023/12/11 12:21:46;;;;;;;5.75;1.00;;;11.50;99.90;;;;;;4990520;28;20058;-63
2023/12/11 12:24:12;;;;;;;3.70;0.80;;;11.40;99.90;;;;;;4990108;28;20447;-63
2023/12/11 12:26:38;;;;;;;4.15;1.05;;;11.30;99.90;;;;;;4989579;28;20138;-63
2023/12/11 12:29:04;;;;;;;1.33;0.68;;;11.20;99.90;;;;;;4991337;28;20023;-64
2023/12/11 12:31:30;;;;;;;2.08;0.70;;;11.20;99.90;;;;;;4989813;28;20365;-63
2023/12/11 12:33:57;;;;;;;6.85;1.00;;;11.20;99.90;;;;;;4989999;28;20080;-63
2023/12/11 12:36:23;;;;;;;5.72;1.13;;;11.20;99.90;;;;;;4990508;28;20100;-63
2023/12/11 12:38:49;;;;;;;2.95;0.85;;;11.20;99.90;;;;;;4990009;28;20062;-62
2023/12/11 12:41:15;;;;;;;5.43;1.25;;;11.10;99.90;;;;;;4989812;28;20139;-63
2023/12/11 12:43:41;;;;;;;3.40;1.00;;;11.10;99.90;;;;;;4989614;28;20089;-62
2023/12/11 12:46:07;;;;;;;4.00;1.00;;;11.20;99.90;;;;;;4988489;28;20485;-62
2023/12/11 12:48:33;;;;;;;3.38;1.10;;;11.20;99.90;;;;;;4989946;28;20064;-63
2023/12/11 12:51:10;;;;;;;4.32;1.35;;;11.30;99.90;;;;;;4989298;28;20113;-63
2023/12/11 12:53:46;;;;;;;6.57;0.93;;;11.30;99.90;;;;;;4989443;28;20864;-63